sensor_id;sensor_type;location;lat;lon;timestamp;P1;durP1;ratioP1;P2;durP2;ratioP2
85218;SDS011;75606;40.152;44.490;2024-01-15T00:00:41;3.88;;;2.13;;
85218;SDS011;75606;40.152;44.490;2024-01-15T00:03:07;4.70;;;2.15;;
85218;SDS011;75606;40.152;44.490;2024-01-15T00:05:33;3.92;;;2.20;;
85218;SDS011;75606;40.152;44.490;2024-01-15T00:07:59;3.15;;;1.83;;
85218;SDS011;75606;40.152;44.490;2024-01-15T00:10:24;3.33;;;1.73;;
85218;SDS011;75606;40.152;44.490;2024-01-15T00:12:50;3.47;;;1.70;;
85218;SDS011;75606;40.152;44.490;2024-01-15T00:15:15;4.78;;;2.10;;
85218;SDS011;75606;40.152;44.490;2024-01-15T00:17:41;6.70;;;2.92;;
85218;SDS011;75606;40.152;44.490;2024-01-15T00:20:07;3.25;;;1.80;;
85218;SDS011;75606;40.152;44.490;2024-01-15T00:22:32;4.63;;;1.90;;
85218;SDS011;75606;40.152;44.490;2024-01-15T00:25:00;4.13;;;1.90;;
85218;SDS011;75606;40.152;44.490;2024-01-15T00:27:26;5.90;;;2.83;;
85218;SDS011;75606;40.152;44.490;2024-01-15T00:29:52;4.47;;;2.20;;
85218;SDS011;75606;40.152;44.490;2024-01-15T00:32:19;5.57;;;2.53;;
85218;SDS011;75606;40.152;44.490;2024-01-15T00:34:45;4.50;;;2.20;;
85218;SDS011;75606;40.152;44.490;2024-01-15T00:37:11;5.18;;;2.20;;
85218;SDS011;75606;40.152;44.490;2024-01-15T00:39:37;6.05;;;2.40;;
85218;SDS011;75606;40.152;44.490;2024-01-15T00:42:03;3.88;;;1.85;;
85218;SDS011;75606;40.152;44.490;2024-01-15T00:44:28;3.00;;;1.58;;
85218;SDS011;75606;40.152;44.490;2024-01-15T00:46:54;6.05;;;2.42;;
85218;SDS011;75606;40.152;44.490;2024-01-15T00:49:19;3.75;;;1.80;;
85218;SDS011;75606;40.152;44.490;2024-01-15T00:51:45;5.85;;;1.63;;
85218;SDS011;75606;40.152;44.490;2024-01-15T00:54:11;3.83;;;2.10;;
85218;SDS011;75606;40.152;44.490;2024-01-15T00:56:36;3.15;;;1.48;;
85218;SDS011;75606;40.152;44.490;2024-01-15T00:59:02;4.15;;;2.20;;
85218;SDS011;75606;40.152;44.490;2024-01-15T01:01:28;3.78;;;1.80;;
85218;SDS011;75606;40.152;44.490;2024-01-15T01:03:53;4.00;;;2.25;;
85218;SDS011;75606;40.152;44.490;2024-01-15T01:06:19;5.40;;;2.53;;
85218;SDS011;75606;40.152;44.490;2024-01-15T01:08:45;4.97;;;2.10;;
85218;SDS011;75606;40.152;44.490;2024-01-15T01:11:15;5.25;;;2.28;;
85218;SDS011;75606;40.152;44.490;2024-01-15T01:13:41;4.18;;;2.15;;
85218;SDS011;75606;40.152;44.490;2024-01-15T01:16:06;5.18;;;2.03;;
85218;SDS011;75606;40.152;44.490;2024-01-15T01:18:32;4.13;;;2.17;;
85218;SDS011;75606;40.152;44.490;2024-01-15T01:20:58;3.65;;;2.10;;
85218;SDS011;75606;40.152;44.490;2024-01-15T01:23:23;3.92;;;2.60;;
85218;SDS011;75606;40.152;44.490;2024-01-15T01:25:49;6.15;;;2.45;;
85218;SDS011;75606;40.152;44.490;2024-01-15T01:28:14;5.60;;;2.28;;
85218;SDS011;75606;40.152;44.490;2024-01-15T01:30:40;6.63;;;2.67;;
85218;SDS011;75606;40.152;44.490;2024-01-15T01:33:06;5.35;;;2.25;;
85218;SDS011;75606;40.152;44.490;2024-01-15T01:35:31;3.95;;;2.22;;
85218;SDS011;75606;40.152;44.490;2024-01-15T01:37:57;5.75;;;2.40;;
85218;SDS011;75606;40.152;44.490;2024-01-15T01:40:22;7.65;;;2.65;;
85218;SDS011;75606;40.152;44.490;2024-01-15T01:42:48;4.78;;;2.58;;
85218;SDS011;75606;40.152;44.490;2024-01-15T01:45:14;6.22;;;3.10;;
85218;SDS011;75606;40.152;44.490;2024-01-15T01:47:40;9.10;;;4.18;;
85218;SDS011;75606;40.152;44.490;2024-01-15T01:50:06;9.45;;;4.38;;
85218;SDS011;75606;40.152;44.490;2024-01-15T01:52:33;10.05;;;3.90;;
85218;SDS011;75606;40.152;44.490;2024-01-15T01:55:00;6.63;;;2.80;;
85218;SDS011;75606;40.152;44.490;2024-01-15T01:57:27;7.53;;;3.72;;
85218;SDS011;75606;40.152;44.490;2024-01-15T01:59:53;7.28;;;3.78;;
85218;SDS011;75606;40.152;44.490;2024-01-15T02:02:19;7.35;;;3.88;;
85218;SDS011;75606;40.152;44.490;2024-01-15T02:04:46;8.02;;;2.88;;
85218;SDS011;75606;40.152;44.490;2024-01-15T02:07:12;6.10;;;2.70;;
85218;SDS011;75606;40.152;44.490;2024-01-15T02:09:38;9.02;;;4.47;;
85218;SDS011;75606;40.152;44.490;2024-01-15T02:12:04;9.90;;;4.65;;
85218;SDS011;75606;40.152;44.490;2024-01-15T02:14:29;11.00;;;5.90;;
85218;SDS011;75606;40.152;44.490;2024-01-15T02:16:55;12.50;;;5.90;;
85218;SDS011;75606;40.152;44.490;2024-01-15T02:19:21;13.70;;;6.78;;
85218;SDS011;75606;40.152;44.490;2024-01-15T02:21:46;16.52;;;7.07;;
85218;SDS011;75606;40.152;44.490;2024-01-15T02:24:12;12.20;;;7.13;;
85218;SDS011;75606;40.152;44.490;2024-01-15T02:26:38;13.88;;;6.97;;
85218;SDS011;75606;40.152;44.490;2024-01-15T02:29:04;14.07;;;7.32;;
85218;SDS011;75606;40.152;44.490;2024-01-15T02:31:32;17.00;;;7.10;;
85218;SDS011;75606;40.152;44.490;2024-01-15T02:33:58;14.18;;;6.65;;
85218;SDS011;75606;40.152;44.490;2024-01-15T02:36:23;15.65;;;7.25;;
85218;SDS011;75606;40.152;44.490;2024-01-15T02:38:49;13.38;;;6.60;;
85218;SDS011;75606;40.152;44.490;2024-01-15T02:41:15;14.13;;;6.13;;
85218;SDS011;75606;40.152;44.490;2024-01-15T02:43:40;16.15;;;7.70;;
85218;SDS011;75606;40.152;44.490;2024-01-15T02:46:06;15.85;;;7.80;;
85218;SDS011;75606;40.152;44.490;2024-01-15T02:48:32;17.05;;;8.40;;
85218;SDS011;75606;40.152;44.490;2024-01-15T02:50:59;13.88;;;7.50;;
85218;SDS011;75606;40.152;44.490;2024-01-15T02:53:26;12.13;;;6.95;;
85218;SDS011;75606;40.152;44.490;2024-01-15T02:55:51;17.33;;;8.65;;
85218;SDS011;75606;40.152;44.490;2024-01-15T02:58:17;14.35;;;7.13;;
85218;SDS011;75606;40.152;44.490;2024-01-15T03:00:42;15.52;;;6.80;;
85218;SDS011;75606;40.152;44.490;2024-01-15T03:03:08;11.93;;;6.45;;
85218;SDS011;75606;40.152;44.490;2024-01-15T03:05:34;17.10;;;7.35;;
85218;SDS011;75606;40.152;44.490;2024-01-15T03:08:00;21.25;;;8.45;;
85218;SDS011;75606;40.152;44.490;2024-01-15T03:10:25;15.93;;;7.20;;
85218;SDS011;75606;40.152;44.490;2024-01-15T03:12:51;20.52;;;9.50;;
85218;SDS011;75606;40.152;44.490;2024-01-15T03:15:16;16.60;;;8.45;;
85218;SDS011;75606;40.152;44.490;2024-01-15T03:17:43;15.52;;;7.55;;
85218;SDS011;75606;40.152;44.490;2024-01-15T03:20:09;14.40;;;7.45;;
85218;SDS011;75606;40.152;44.490;2024-01-15T03:22:35;18.90;;;7.10;;
85218;SDS011;75606;40.152;44.490;2024-01-15T03:25:01;10.43;;;5.85;;
85218;SDS011;75606;40.152;44.490;2024-01-15T03:27:27;14.38;;;6.20;;
85218;SDS011;75606;40.152;44.490;2024-01-15T03:29:52;14.60;;;6.78;;
85218;SDS011;75606;40.152;44.490;2024-01-15T03:32:18;20.23;;;7.07;;
85218;SDS011;75606;40.152;44.490;2024-01-15T03:34:44;13.30;;;6.90;;
85218;SDS011;75606;40.152;44.490;2024-01-15T03:37:11;12.40;;;6.72;;
85218;SDS011;75606;40.152;44.490;2024-01-15T03:39:37;13.18;;;6.95;;
85218;SDS011;75606;40.152;44.490;2024-01-15T03:42:03;15.95;;;7.82;;
85218;SDS011;75606;40.152;44.490;2024-01-15T03:44:29;19.40;;;8.90;;
85218;SDS011;75606;40.152;44.490;2024-01-15T03:46:54;14.65;;;7.82;;
85218;SDS011;75606;40.152;44.490;2024-01-15T03:49:20;19.25;;;7.68;;
85218;SDS011;75606;40.152;44.490;2024-01-15T03:51:46;16.80;;;8.35;;
85218;SDS011;75606;40.152;44.490;2024-01-15T03:54:11;17.33;;;7.65;;
85218;SDS011;75606;40.152;44.490;2024-01-15T03:56:37;17.60;;;7.68;;
85218;SDS011;75606;40.152;44.490;2024-01-15T03:59:02;17.45;;;8.30;;
85218;SDS011;75606;40.152;44.490;2024-01-15T04:01:28;17.10;;;8.25;;
85218;SDS011;75606;40.152;44.490;2024-01-15T04:03:54;16.20;;;8.20;;
85218;SDS011;75606;40.152;44.490;2024-01-15T04:06:20;18.55;;;9.00;;
85218;SDS011;75606;40.152;44.490;2024-01-15T04:08:46;18.98;;;9.90;;
85218;SDS011;75606;40.152;44.490;2024-01-15T04:11:11;22.60;;;9.75;;
85218;SDS011;75606;40.152;44.490;2024-01-15T04:13:37;19.15;;;9.50;;
85218;SDS011;75606;40.152;44.490;2024-01-15T04:16:03;22.67;;;9.38;;
85218;SDS011;75606;40.152;44.490;2024-01-15T04:18:29;20.00;;;9.73;;
85218;SDS011;75606;40.152;44.490;2024-01-15T04:20:54;20.50;;;10.07;;
85218;SDS011;75606;40.152;44.490;2024-01-15T04:23:20;22.05;;;9.63;;
85218;SDS011;75606;40.152;44.490;2024-01-15T04:25:46;18.35;;;8.73;;
85218;SDS011;75606;40.152;44.490;2024-01-15T04:28:11;21.27;;;10.20;;
85218;SDS011;75606;40.152;44.490;2024-01-15T04:30:37;17.85;;;8.10;;
85218;SDS011;75606;40.152;44.490;2024-01-15T04:33:03;18.70;;;7.85;;
85218;SDS011;75606;40.152;44.490;2024-01-15T04:35:29;21.15;;;10.55;;
85218;SDS011;75606;40.152;44.490;2024-01-15T04:37:55;22.77;;;9.77;;
85218;SDS011;75606;40.152;44.490;2024-01-15T04:40:21;19.48;;;9.65;;
85218;SDS011;75606;40.152;44.490;2024-01-15T04:42:47;18.67;;;9.13;;
85218;SDS011;75606;40.152;44.490;2024-01-15T04:45:12;25.80;;;13.23;;
85218;SDS011;75606;40.152;44.490;2024-01-15T04:47:38;23.27;;;11.23;;
85218;SDS011;75606;40.152;44.490;2024-01-15T04:50:04;21.55;;;12.10;;
85218;SDS011;75606;40.152;44.490;2024-01-15T04:52:30;26.35;;;11.18;;
85218;SDS011;75606;40.152;44.490;2024-01-15T04:54:56;19.45;;;9.63;;
85218;SDS011;75606;40.152;44.490;2024-01-15T04:57:22;22.50;;;11.65;;
85218;SDS011;75606;40.152;44.490;2024-01-15T04:59:47;22.70;;;11.02;;
85218;SDS011;75606;40.152;44.490;2024-01-15T05:02:13;24.02;;;12.38;;
85218;SDS011;75606;40.152;44.490;2024-01-15T05:04:39;31.08;;;15.95;;
85218;SDS011;75606;40.152;44.490;2024-01-15T05:07:05;44.45;;;18.30;;
85218;SDS011;75606;40.152;44.490;2024-01-15T05:09:30;36.47;;;18.38;;
85218;SDS011;75606;40.152;44.490;2024-01-15T05:11:56;42.03;;;17.52;;
85218;SDS011;75606;40.152;44.490;2024-01-15T05:14:22;32.97;;;15.85;;
85218;SDS011;75606;40.152;44.490;2024-01-15T05:16:48;35.75;;;17.17;;
85218;SDS011;75606;40.152;44.490;2024-01-15T05:19:14;31.60;;;14.38;;
85218;SDS011;75606;40.152;44.490;2024-01-15T05:21:40;30.65;;;15.38;;
85218;SDS011;75606;40.152;44.490;2024-01-15T05:24:06;29.80;;;13.35;;
85218;SDS011;75606;40.152;44.490;2024-01-15T05:26:32;29.10;;;14.35;;
85218;SDS011;75606;40.152;44.490;2024-01-15T05:28:58;28.30;;;13.82;;
85218;SDS011;75606;40.152;44.490;2024-01-15T05:31:23;24.95;;;12.55;;
85218;SDS011;75606;40.152;44.490;2024-01-15T05:33:49;28.25;;;13.93;;
85218;SDS011;75606;40.152;44.490;2024-01-15T05:36:14;28.38;;;12.02;;
85218;SDS011;75606;40.152;44.490;2024-01-15T05:38:40;18.65;;;8.50;;
85218;SDS011;75606;40.152;44.490;2024-01-15T05:41:06;18.77;;;7.57;;
85218;SDS011;75606;40.152;44.490;2024-01-15T05:43:32;23.75;;;9.45;;
85218;SDS011;75606;40.152;44.490;2024-01-15T05:45:57;20.50;;;9.02;;
85218;SDS011;75606;40.152;44.490;2024-01-15T05:48:23;22.45;;;9.63;;
85218;SDS011;75606;40.152;44.490;2024-01-15T05:50:49;22.25;;;10.85;;
85218;SDS011;75606;40.152;44.490;2024-01-15T05:53:14;19.92;;;10.40;;
85218;SDS011;75606;40.152;44.490;2024-01-15T05:55:40;20.25;;;12.00;;
85218;SDS011;75606;40.152;44.490;2024-01-15T05:58:06;21.30;;;10.93;;
85218;SDS011;75606;40.152;44.490;2024-01-15T06:00:32;18.33;;;9.15;;
85218;SDS011;75606;40.152;44.490;2024-01-15T06:03:01;19.45;;;10.07;;
85218;SDS011;75606;40.152;44.490;2024-01-15T06:05:26;16.58;;;8.43;;
85218;SDS011;75606;40.152;44.490;2024-01-15T06:07:52;15.25;;;8.65;;
85218;SDS011;75606;40.152;44.490;2024-01-15T06:10:18;15.82;;;8.98;;
85218;SDS011;75606;40.152;44.490;2024-01-15T06:12:44;13.07;;;8.10;;
85218;SDS011;75606;40.152;44.490;2024-01-15T06:15:09;17.63;;;9.75;;
85218;SDS011;75606;40.152;44.490;2024-01-15T06:17:35;14.48;;;8.80;;
85218;SDS011;75606;40.152;44.490;2024-01-15T06:20:01;16.10;;;8.23;;
85218;SDS011;75606;40.152;44.490;2024-01-15T06:22:28;15.20;;;8.48;;
85218;SDS011;75606;40.152;44.490;2024-01-15T06:24:54;16.25;;;8.02;;
85218;SDS011;75606;40.152;44.490;2024-01-15T06:27:20;18.10;;;9.73;;
85218;SDS011;75606;40.152;44.490;2024-01-15T06:29:46;16.38;;;10.63;;
85218;SDS011;75606;40.152;44.490;2024-01-15T06:32:14;13.55;;;8.25;;
85218;SDS011;75606;40.152;44.490;2024-01-15T06:34:40;18.83;;;9.98;;
85218;SDS011;75606;40.152;44.490;2024-01-15T06:37:06;13.40;;;7.78;;
85218;SDS011;75606;40.152;44.490;2024-01-15T06:39:32;13.68;;;7.93;;
85218;SDS011;75606;40.152;44.490;2024-01-15T06:41:57;12.43;;;7.47;;
85218;SDS011;75606;40.152;44.490;2024-01-15T06:44:23;15.18;;;8.73;;
85218;SDS011;75606;40.152;44.490;2024-01-15T06:46:49;11.27;;;7.35;;
85218;SDS011;75606;40.152;44.490;2024-01-15T06:49:14;14.05;;;9.20;;
85218;SDS011;75606;40.152;44.490;2024-01-15T06:51:40;10.18;;;6.53;;
85218;SDS011;75606;40.152;44.490;2024-01-15T06:54:06;10.52;;;6.75;;
85218;SDS011;75606;40.152;44.490;2024-01-15T06:56:32;10.35;;;7.25;;
85218;SDS011;75606;40.152;44.490;2024-01-15T06:58:58;13.30;;;8.80;;
85218;SDS011;75606;40.152;44.490;2024-01-15T07:01:23;9.65;;;6.63;;
85218;SDS011;75606;40.152;44.490;2024-01-15T07:03:49;9.15;;;5.82;;
85218;SDS011;75606;40.152;44.490;2024-01-15T07:06:15;11.57;;;7.05;;
85218;SDS011;75606;40.152;44.490;2024-01-15T07:08:42;13.05;;;8.43;;
85218;SDS011;75606;40.152;44.490;2024-01-15T07:11:07;15.80;;;8.43;;
85218;SDS011;75606;40.152;44.490;2024-01-15T07:13:33;14.82;;;9.48;;
85218;SDS011;75606;40.152;44.490;2024-01-15T07:15:59;15.95;;;9.57;;
85218;SDS011;75606;40.152;44.490;2024-01-15T07:18:25;18.50;;;10.98;;
85218;SDS011;75606;40.152;44.490;2024-01-15T07:20:50;17.05;;;10.75;;
85218;SDS011;75606;40.152;44.490;2024-01-15T07:23:16;18.92;;;12.88;;
85218;SDS011;75606;40.152;44.490;2024-01-15T07:25:42;16.65;;;10.75;;
85218;SDS011;75606;40.152;44.490;2024-01-15T07:28:08;19.48;;;12.27;;
85218;SDS011;75606;40.152;44.490;2024-01-15T07:30:33;16.60;;;10.35;;
85218;SDS011;75606;40.152;44.490;2024-01-15T07:32:59;20.52;;;11.20;;
85218;SDS011;75606;40.152;44.490;2024-01-15T07:35:25;19.27;;;11.35;;
85218;SDS011;75606;40.152;44.490;2024-01-15T07:37:50;17.45;;;11.55;;
85218;SDS011;75606;40.152;44.490;2024-01-15T07:40:16;12.32;;;8.48;;
85218;SDS011;75606;40.152;44.490;2024-01-15T07:42:42;18.23;;;11.68;;
85218;SDS011;75606;40.152;44.490;2024-01-15T07:45:10;17.35;;;11.32;;
85218;SDS011;75606;40.152;44.490;2024-01-15T07:47:36;21.38;;;11.80;;
85218;SDS011;75606;40.152;44.490;2024-01-15T07:50:02;19.23;;;11.88;;
85218;SDS011;75606;40.152;44.490;2024-01-15T07:52:28;28.88;;;16.33;;
85218;SDS011;75606;40.152;44.490;2024-01-15T07:54:55;17.63;;;11.57;;
85218;SDS011;75606;40.152;44.490;2024-01-15T07:57:21;25.05;;;15.35;;
85218;SDS011;75606;40.152;44.490;2024-01-15T07:59:48;25.88;;;15.95;;
85218;SDS011;75606;40.152;44.490;2024-01-15T08:02:13;19.95;;;14.70;;
85218;SDS011;75606;40.152;44.490;2024-01-15T08:04:39;25.80;;;15.05;;
85218;SDS011;75606;40.152;44.490;2024-01-15T08:07:05;24.75;;;14.63;;
85218;SDS011;75606;40.152;44.490;2024-01-15T08:09:32;26.85;;;17.73;;
85218;SDS011;75606;40.152;44.490;2024-01-15T08:11:58;26.20;;;16.98;;
85218;SDS011;75606;40.152;44.490;2024-01-15T08:14:24;19.80;;;13.30;;
85218;SDS011;75606;40.152;44.490;2024-01-15T08:16:50;29.80;;;19.48;;
85218;SDS011;75606;40.152;44.490;2024-01-15T08:19:16;23.90;;;14.98;;
85218;SDS011;75606;40.152;44.490;2024-01-15T08:21:41;22.30;;;14.70;;
85218;SDS011;75606;40.152;44.490;2024-01-15T08:24:07;20.52;;;14.45;;
85218;SDS011;75606;40.152;44.490;2024-01-15T08:26:33;22.15;;;13.98;;
85218;SDS011;75606;40.152;44.490;2024-01-15T08:28:59;26.50;;;17.75;;
85218;SDS011;75606;40.152;44.490;2024-01-15T08:31:25;27.70;;;18.23;;
85218;SDS011;75606;40.152;44.490;2024-01-15T08:33:51;22.63;;;13.45;;
85218;SDS011;75606;40.152;44.490;2024-01-15T08:36:16;21.75;;;13.45;;
85218;SDS011;75606;40.152;44.490;2024-01-15T08:38:42;25.63;;;14.48;;
85218;SDS011;75606;40.152;44.490;2024-01-15T08:41:08;23.63;;;14.30;;
85218;SDS011;75606;40.152;44.490;2024-01-15T08:43:34;30.05;;;16.75;;
85218;SDS011;75606;40.152;44.490;2024-01-15T08:46:00;19.27;;;13.38;;
85218;SDS011;75606;40.152;44.490;2024-01-15T08:48:26;23.55;;;14.77;;
85218;SDS011;75606;40.152;44.490;2024-01-15T08:50:52;30.05;;;18.38;;
85218;SDS011;75606;40.152;44.490;2024-01-15T08:53:19;28.60;;;16.35;;
85218;SDS011;75606;40.152;44.490;2024-01-15T08:55:46;24.30;;;15.57;;
85218;SDS011;75606;40.152;44.490;2024-01-15T08:58:13;26.75;;;17.20;;
85218;SDS011;75606;40.152;44.490;2024-01-15T09:00:39;27.98;;;17.65;;
85218;SDS011;75606;40.152;44.490;2024-01-15T09:03:05;21.58;;;14.80;;
85218;SDS011;75606;40.152;44.490;2024-01-15T09:05:31;24.35;;;14.88;;
85218;SDS011;75606;40.152;44.490;2024-01-15T09:07:56;29.33;;;16.83;;
85218;SDS011;75606;40.152;44.490;2024-01-15T09:10:22;28.38;;;16.75;;
85218;SDS011;75606;40.152;44.490;2024-01-15T09:12:48;25.48;;;16.70;;
85218;SDS011;75606;40.152;44.490;2024-01-15T09:17:42;31.92;;;19.52;;
85218;SDS011;75606;40.152;44.490;2024-01-15T09:20:08;21.38;;;14.32;;
85218;SDS011;75606;40.152;44.490;2024-01-15T09:22:34;23.13;;;16.50;;
85218;SDS011;75606;40.152;44.490;2024-01-15T09:25:00;20.83;;;14.30;;
85218;SDS011;75606;40.152;44.490;2024-01-15T09:27:26;26.02;;;18.38;;
85218;SDS011;75606;40.152;44.490;2024-01-15T09:29:55;30.52;;;21.13;;
85218;SDS011;75606;40.152;44.490;2024-01-15T09:32:20;23.63;;;17.77;;
85218;SDS011;75606;40.152;44.490;2024-01-15T09:34:46;20.65;;;16.42;;
85218;SDS011;75606;40.152;44.490;2024-01-15T09:37:13;19.30;;;16.63;;
85218;SDS011;75606;40.152;44.490;2024-01-15T09:39:39;22.85;;;18.55;;
85218;SDS011;75606;40.152;44.490;2024-01-15T09:42:05;20.98;;;18.55;;
85218;SDS011;75606;40.152;44.490;2024-01-15T09:44:30;19.08;;;15.95;;
85218;SDS011;75606;40.152;44.490;2024-01-15T09:46:57;16.52;;;14.85;;
85218;SDS011;75606;40.152;44.490;2024-01-15T09:49:23;17.15;;;15.32;;
85218;SDS011;75606;40.152;44.490;2024-01-15T09:51:49;24.38;;;19.88;;
85218;SDS011;75606;40.152;44.490;2024-01-15T09:54:15;17.63;;;15.73;;
85218;SDS011;75606;40.152;44.490;2024-01-15T09:56:44;22.15;;;18.35;;
85218;SDS011;75606;40.152;44.490;2024-01-15T09:59:16;22.10;;;17.85;;
85218;SDS011;75606;40.152;44.490;2024-01-15T10:01:43;28.25;;;18.13;;
85218;SDS011;75606;40.152;44.490;2024-01-15T10:04:13;27.05;;;19.58;;
85218;SDS011;75606;40.152;44.490;2024-01-15T10:06:39;19.83;;;17.63;;
85218;SDS011;75606;40.152;44.490;2024-01-15T10:09:07;22.15;;;15.43;;
85218;SDS011;75606;40.152;44.490;2024-01-15T10:11:33;24.15;;;19.30;;
85218;SDS011;75606;40.152;44.490;2024-01-15T10:13:59;18.48;;;14.75;;
85218;SDS011;75606;40.152;44.490;2024-01-15T10:16:25;17.85;;;14.15;;
85218;SDS011;75606;40.152;44.490;2024-01-15T10:18:51;19.77;;;16.23;;
85218;SDS011;75606;40.152;44.490;2024-01-15T10:21:17;18.30;;;15.57;;
85218;SDS011;75606;40.152;44.490;2024-01-15T10:23:44;14.88;;;12.50;;
85218;SDS011;75606;40.152;44.490;2024-01-15T10:26:09;15.57;;;13.90;;
85218;SDS011;75606;40.152;44.490;2024-01-15T10:28:37;19.38;;;16.60;;
85218;SDS011;75606;40.152;44.490;2024-01-15T10:31:02;15.55;;;13.90;;
85218;SDS011;75606;40.152;44.490;2024-01-15T10:33:29;18.65;;;14.70;;
85218;SDS011;75606;40.152;44.490;2024-01-15T10:35:55;18.30;;;14.13;;
85218;SDS011;75606;40.152;44.490;2024-01-15T10:38:25;19.95;;;17.13;;
85218;SDS011;75606;40.152;44.490;2024-01-15T10:40:51;17.30;;;14.23;;
85218;SDS011;75606;40.152;44.490;2024-01-15T10:43:18;23.60;;;15.77;;
85218;SDS011;75606;40.152;44.490;2024-01-15T10:45:47;14.32;;;12.90;;
85218;SDS011;75606;40.152;44.490;2024-01-15T10:48:14;21.48;;;16.15;;
85218;SDS011;75606;40.152;44.490;2024-01-15T10:53:08;20.55;;;13.43;;
85218;SDS011;75606;40.152;44.490;2024-01-15T10:55:35;24.77;;;17.58;;
85218;SDS011;75606;40.152;44.490;2024-01-15T10:58:01;20.70;;;18.48;;
85218;SDS011;75606;40.152;44.490;2024-01-15T11:02:54;21.20;;;18.48;;
85218;SDS011;75606;40.152;44.490;2024-01-15T11:05:23;19.50;;;17.38;;
85218;SDS011;75606;40.152;44.490;2024-01-15T11:07:49;14.43;;;12.38;;
85218;SDS011;75606;40.152;44.490;2024-01-15T11:13:08;15.30;;;13.77;;
85218;SDS011;75606;40.152;44.490;2024-01-15T11:15:57;14.35;;;12.93;;
85218;SDS011;75606;40.152;44.490;2024-01-15T11:18:35;21.50;;;16.60;;
85218;SDS011;75606;40.152;44.490;2024-01-15T11:23:51;23.65;;;18.40;;
85218;SDS011;75606;40.152;44.490;2024-01-15T11:26:30;19.30;;;16.65;;
85218;SDS011;75606;40.152;44.490;2024-01-15T11:28:58;17.73;;;15.10;;
85218;SDS011;75606;40.152;44.490;2024-01-15T11:31:29;13.60;;;11.00;;
85218;SDS011;75606;40.152;44.490;2024-01-15T11:33:55;17.85;;;14.45;;
85218;SDS011;75606;40.152;44.490;2024-01-15T11:36:22;17.15;;;13.15;;
85218;SDS011;75606;40.152;44.490;2024-01-15T11:41:57;12.85;;;11.57;;
85218;SDS011;75606;40.152;44.490;2024-01-15T11:44:23;19.58;;;17.48;;
85218;SDS011;75606;40.152;44.490;2024-01-15T11:46:56;15.07;;;12.32;;
85218;SDS011;75606;40.152;44.490;2024-01-15T11:49:30;19.13;;;15.23;;
85218;SDS011;75606;40.152;44.490;2024-01-15T11:52:19;18.70;;;16.05;;
85218;SDS011;75606;40.152;44.490;2024-01-15T11:57:45;21.45;;;14.85;;
85218;SDS011;75606;40.152;44.490;2024-01-15T12:00:12;21.15;;;15.48;;
85218;SDS011;75606;40.152;44.490;2024-01-15T12:02:42;24.67;;;16.45;;
85218;SDS011;75606;40.152;44.490;2024-01-15T12:05:09;15.95;;;13.43;;
85218;SDS011;75606;40.152;44.490;2024-01-15T12:07:39;17.40;;;13.48;;
85218;SDS011;75606;40.152;44.490;2024-01-15T12:10:11;18.38;;;15.25;;
85218;SDS011;75606;40.152;44.490;2024-01-15T12:12:59;19.77;;;16.23;;
85218;SDS011;75606;40.152;44.490;2024-01-15T12:15:46;17.75;;;14.30;;
85218;SDS011;75606;40.152;44.490;2024-01-15T12:18:14;16.70;;;12.85;;
85218;SDS011;75606;40.152;44.490;2024-01-15T12:20:40;17.55;;;13.93;;
85218;SDS011;75606;40.152;44.490;2024-01-15T12:23:07;22.00;;;16.60;;
85218;SDS011;75606;40.152;44.490;2024-01-15T12:25:35;19.55;;;14.20;;
85218;SDS011;75606;40.152;44.490;2024-01-15T12:28:00;14.70;;;11.95;;
85218;SDS011;75606;40.152;44.490;2024-01-15T12:30:27;20.58;;;17.05;;
85218;SDS011;75606;40.152;44.490;2024-01-15T12:32:53;18.60;;;13.80;;
85218;SDS011;75606;40.152;44.490;2024-01-15T12:35:19;14.45;;;11.85;;
85218;SDS011;75606;40.152;44.490;2024-01-15T12:37:45;14.60;;;12.10;;
85218;SDS011;75606;40.152;44.490;2024-01-15T12:40:18;22.48;;;16.23;;
85218;SDS011;75606;40.152;44.490;2024-01-15T12:42:45;16.67;;;12.82;;
85218;SDS011;75606;40.152;44.490;2024-01-15T12:45:11;13.80;;;12.13;;
85218;SDS011;75606;40.152;44.490;2024-01-15T12:47:37;15.65;;;12.10;;
85218;SDS011;75606;40.152;44.490;2024-01-15T12:50:07;25.92;;;16.80;;
85218;SDS011;75606;40.152;44.490;2024-01-15T12:52:33;19.20;;;16.00;;
85218;SDS011;75606;40.152;44.490;2024-01-15T12:54:59;17.48;;;12.80;;
85218;SDS011;75606;40.152;44.490;2024-01-15T12:57:25;14.35;;;10.88;;
85218;SDS011;75606;40.152;44.490;2024-01-15T12:59:51;18.05;;;12.63;;
85218;SDS011;75606;40.152;44.490;2024-01-15T13:04:45;24.88;;;15.45;;
85218;SDS011;75606;40.152;44.490;2024-01-15T13:07:10;12.52;;;9.82;;
85218;SDS011;75606;40.152;44.490;2024-01-15T13:09:36;17.75;;;12.10;;
85218;SDS011;75606;40.152;44.490;2024-01-15T13:12:02;18.77;;;10.50;;
85218;SDS011;75606;40.152;44.490;2024-01-15T13:14:31;17.17;;;12.05;;
85218;SDS011;75606;40.152;44.490;2024-01-15T13:16:58;27.15;;;15.73;;
85218;SDS011;75606;40.152;44.490;2024-01-15T13:19:24;35.67;;;20.50;;
85218;SDS011;75606;40.152;44.490;2024-01-15T13:21:50;26.50;;;16.75;;
85218;SDS011;75606;40.152;44.490;2024-01-15T13:24:17;33.10;;;18.02;;
85218;SDS011;75606;40.152;44.490;2024-01-15T13:26:43;29.67;;;17.85;;
85218;SDS011;75606;40.152;44.490;2024-01-15T13:29:08;24.83;;;15.35;;
85218;SDS011;75606;40.152;44.490;2024-01-15T13:31:34;24.58;;;15.63;;
85218;SDS011;75606;40.152;44.490;2024-01-15T13:34:00;24.23;;;14.57;;
85218;SDS011;75606;40.152;44.490;2024-01-15T13:36:26;24.55;;;13.18;;
85218;SDS011;75606;40.152;44.490;2024-01-15T13:38:52;21.35;;;11.77;;
85218;SDS011;75606;40.152;44.490;2024-01-15T13:41:21;26.58;;;13.77;;
85218;SDS011;75606;40.152;44.490;2024-01-15T13:43:50;18.45;;;10.88;;
85218;SDS011;75606;40.152;44.490;2024-01-15T13:46:18;31.83;;;16.85;;
85218;SDS011;75606;40.152;44.490;2024-01-15T13:48:44;32.05;;;16.63;;
85218;SDS011;75606;40.152;44.490;2024-01-15T13:51:09;29.67;;;16.45;;
85218;SDS011;75606;40.152;44.490;2024-01-15T13:53:37;21.05;;;11.32;;
85218;SDS011;75606;40.152;44.490;2024-01-15T13:56:03;24.50;;;13.07;;
85218;SDS011;75606;40.152;44.490;2024-01-15T13:58:30;19.45;;;11.20;;
85218;SDS011;75606;40.152;44.490;2024-01-15T14:00:56;39.92;;;16.23;;
85218;SDS011;75606;40.152;44.490;2024-01-15T14:03:22;23.15;;;12.25;;
85218;SDS011;75606;40.152;44.490;2024-01-15T14:05:47;22.52;;;11.15;;
85218;SDS011;75606;40.152;44.490;2024-01-15T14:08:13;18.98;;;10.75;;
85218;SDS011;75606;40.152;44.490;2024-01-15T14:10:39;23.10;;;11.70;;
85218;SDS011;75606;40.152;44.490;2024-01-15T14:13:05;20.65;;;11.32;;
85218;SDS011;75606;40.152;44.490;2024-01-15T14:15:30;27.77;;;13.68;;
85218;SDS011;75606;40.152;44.490;2024-01-15T14:17:56;28.38;;;14.88;;
85218;SDS011;75606;40.152;44.490;2024-01-15T14:20:23;24.67;;;11.55;;
85218;SDS011;75606;40.152;44.490;2024-01-15T14:22:49;26.98;;;15.23;;
85218;SDS011;75606;40.152;44.490;2024-01-15T14:25:15;27.70;;;12.88;;
85218;SDS011;75606;40.152;44.490;2024-01-15T14:27:42;33.13;;;16.83;;
85218;SDS011;75606;40.152;44.490;2024-01-15T14:30:09;34.33;;;16.77;;
85218;SDS011;75606;40.152;44.490;2024-01-15T14:32:35;45.40;;;21.45;;